Time;durP1;ratioP1;P1;durP2;ratioP2;P2;SDS_P1;SDS_P2;PMS_P1;PMS_P2;Temp;Humidity;BMP_temperature;BMP_pressure;BME280_temperature;BME280_humidity;BME280_pressure;Samples;Min_cycle;Max_cycle;Signal;HPM_P1;HPM_P2
2021/12/04 00:03:08;;;;;;;16.90;8.30;;;;;;;-1.74;70.29;99046.16;229533;1193;139721;-65
2021/12/04 00:08:13;;;;;;;18.00;8.40;;;;;;;-1.77;70.43;99044.02;229234;1193;141615;-64
2021/12/04 00:13:17;;;;;;;19.30;8.60;;;;;;;-1.82;70.37;99043.92;228886;1193;139706;-64
2021/12/04 00:18:20;;;;;;;17.20;8.20;;;;;;;-1.88;70.34;99032.80;229624;1193;141078;-65
2021/12/04 00:23:25;;;;;;;18.30;7.90;;;;;;;-1.92;70.44;99026.79;227937;1193;141691;-63
2021/12/04 00:28:28;;;;;;;27.00;10.50;;;;;;;-1.91;70.59;99028.42;227713;1193;140107;-64
2021/12/04 00:33:37;;;;;;;19.40;9.10;;;;;;;-1.85;70.33;99013.14;228117;1193;139306;-64
2021/12/04 00:49:12;;;;;;;18.00;8.40;;;;;;;-1.83;70.64;98991.85;228298;1193;139132;-64
2021/12/04 00:54:15;;;;;;;21.10;9.40;;;;;;;-1.86;70.60;98985.91;228324;1193;140697;-64
2021/12/04 00:59:19;;;;;;;15.40;7.20;;;;;;;-1.88;70.65;98976.91;228388;1193;138883;-63
2021/12/04 01:04:22;;;;;;;21.40;9.90;;;;;;;-1.91;70.57;98969.98;228446;1193;139211;-64
2021/12/04 01:09:26;;;;;;;23.10;9.90;;;;;;;-1.90;70.50;98965.26;228130;1193;139572;-64
2021/12/04 01:14:28;;;;;;;24.30;9.80;;;;;;;-1.84;70.65;98951.54;229076;1193;139757;-64
2021/12/04 01:19:32;;;;;;;23.20;9.50;;;;;;;-1.81;70.64;98949.20;228894;1193;140069;-65
2021/12/04 01:24:35;;;;;;;14.90;8.70;;;;;;;-1.76;70.68;98945.20;229943;1193;139122;-64
2021/12/04 01:29:37;;;;;;;6.90;3.20;;;;;;;-1.73;70.70;98939.66;229086;1193;140317;-64
2021/12/04 01:34:40;;;;;;;16.00;9.10;;;;;;;-1.72;70.56;98935.27;229978;1193;140704;-65
2021/12/04 01:39:43;;;;;;;15.10;8.30;;;;;;;-1.69;70.56;98934.46;230224;1194;139614;-66
2021/12/04 01:44:48;;;;;;;11.70;8.50;;;;;;;-1.59;70.35;98936.20;230150;1194;140179;-67
2021/12/04 01:49:55;;;;;;;17.90;8.40;;;;;;;-1.53;70.41;98936.65;230045;1190;140362;-63
2021/12/04 01:54:59;;;;;;;14.60;8.70;;;;;;;-1.52;70.34;98927.61;228596;1193;140501;-65
2021/12/04 02:00:05;;;;;;;16.30;9.90;;;;;;;-1.53;70.26;98927.04;228844;1193;139847;-63
2021/12/04 02:05:09;;;;;;;15.90;9.10;;;;;;;-1.56;70.44;98927.41;228536;1193;139074;-64
2021/12/04 02:10:15;;;;;;;19.10;8.50;;;;;;;-1.54;70.30;98922.89;228436;1193;139299;-64
2021/12/04 02:15:19;;;;;;;15.20;9.10;;;;;;;-1.51;70.04;98913.88;228563;1193;141473;-65
2021/12/04 02:20:26;;;;;;;15.00;7.30;;;;;;;-1.47;70.20;98908.27;228017;1193;138534;-64
2021/12/04 02:25:29;;;;;;;15.70;8.40;;;;;;;-1.46;70.29;98901.33;228301;1193;139167;-65
2021/12/04 02:30:34;;;;;;;18.40;10.00;;;;;;;-1.45;70.05;98890.73;228524;1193;138826;-65
2021/12/04 02:35:45;;;;;;;11.20;8.20;;;;;;;-1.45;70.02;98883.38;228239;1193;139287;-65
2021/12/04 02:40:50;;;;;;;14.70;8.10;;;;;;;-1.38;70.12;98878.41;228493;1193;139271;-64
2021/12/04 02:45:56;;;;;;;17.50;7.40;;;;;;;-1.34;70.07;98860.34;228536;1193;140182;-64
2021/12/04 02:51:00;;;;;;;16.20;7.70;;;;;;;-1.31;69.99;98848.35;228462;1193;139963;-64
2021/12/04 02:56:05;;;;;;;12.40;7.10;;;;;;;-1.30;70.01;98848.27;227389;1196;139150;-64
2021/12/04 03:01:07;;;;;;;14.40;6.30;;;;;;;-1.30;70.07;98841.65;228008;1193;139893;-64
2021/12/04 03:06:11;;;;;;;13.50;6.70;;;;;;;-1.31;70.27;98837.36;227760;1194;149686;-65
2021/12/04 03:11:16;;;;;;;11.70;8.90;;;;;;;-1.32;70.23;98830.11;228268;1193;139241;-65
2021/12/04 03:16:19;;;;;;;19.30;10.50;;;;;;;-1.25;70.27;98826.91;228704;1193;139738;-66
2021/12/04 03:21:21;;;;;;;14.20;7.70;;;;;;;-1.18;69.96;98818.38;229824;1193;139903;-68
2021/12/04 03:26:25;;;;;;;8.90;6.40;;;;;;;-1.14;70.13;98814.36;230272;1193;143574;-68
2021/12/04 03:42:14;;;;;;;40.50;24.40;;;;;;;-1.06;70.27;98805.75;229872;1193;139443;-64
2021/12/04 03:47:19;;;;;;;18.00;12.60;;;;;;;-0.99;70.04;98804.59;230148;1193;140555;-65
2021/12/04 03:52:21;;;;;;;10.50;8.40;;;;;;;-0.92;70.25;98798.42;227554;1193;144846;-66
2021/12/04 03:57:24;;;;;;;16.90;9.40;;;;;;;-0.88;70.39;98793.14;229571;1193;141348;-67
2021/12/04 04:02:28;;;;;;;10.40;6.80;;;;;;;-0.86;70.27;98784.59;229439;1193;141152;-68
2021/12/04 04:07:31;;;;;;;9.80;8.40;;;;;;;-0.88;70.43;98784.17;229607;1193;140281;-65
2021/12/04 04:12:35;;;;;;;13.30;7.80;;;;;;;-0.88;70.24;98781.23;229002;1195;138996;-63
2021/12/04 04:17:42;;;;;;;11.10;8.20;;;;;;;-0.88;70.17;98768.70;230017;1193;140197;-62
2021/12/04 04:22:46;;;;;;;15.00;7.90;;;;;;;-0.81;70.20;98764.33;228691;1193;140611;-67
2021/12/04 04:27:49;;;;;;;9.50;6.10;;;;;;;-0.75;70.05;98760.52;229175;1193;141951;-67
2021/12/04 04:32:52;;;;;;;8.10;7.00;;;;;;;-0.72;70.12;98756.10;228138;1193;140012;-66
2021/12/04 05:10:37;;;;;;;9.30;5.70;;;;;;;-0.67;69.81;98709.31;228426;1198;139426;-66
2021/12/04 05:15:57;;;;;;;11.10;6.10;;;;;;;-0.67;69.68;98709.48;228398;1194;140382;-65
2021/12/04 05:21:06;;;;;;;11.30;5.70;;;;;;;-0.63;69.91;98714.63;227593;1194;141147;-65
2021/12/04 05:26:15;;;;;;;9.30;6.30;;;;;;;-0.57;69.89;98716.55;229590;1194;141557;-66
2021/12/04 05:31:20;;;;;;;6.00;4.60;;;;;;;-0.55;69.94;98710.90;228453;1193;139675;-65
2021/12/04 05:36:26;;;;;;;9.00;6.00;;;;;;;-0.52;69.83;98709.39;230161;1194;140537;-66
2021/12/04 05:41:33;;;;;;;7.90;5.50;;;;;;;-0.51;69.45;98704.85;230197;1193;139545;-66
2021/12/04 05:46:41;;;;;;;9.70;6.20;;;;;;;-0.50;69.59;98705.95;230338;1193;139288;-65
2021/12/04 05:57:13;;;;;;;10.30;6.20;;;;;;;-0.37;69.46;98704.30;230160;1193;139715;-64
2021/12/04 06:02:17;;;;;;;13.30;7.60;;;;;;;-0.28;69.66;98708.73;230360;1193;139234;-68
2021/12/04 06:07:20;;;;;;;7.70;5.80;;;;;;;-0.25;69.57;98709.68;229001;1193;138612;-66
2021/12/04 06:12:22;;;;;;;37.50;18.20;;;;;;;-0.22;69.38;98713.65;228152;1193;138761;-65
2021/12/04 06:17:28;;;;;;;78.30;36.70;;;;;;;-0.21;69.45;98715.64;228855;1193;139834;-65
2021/12/04 06:22:38;;;;;;;74.60;34.00;;;;;;;-0.24;69.10;98720.54;228099;1193;139990;-68
2021/12/04 06:27:42;;;;;;;12.40;8.60;;;;;;;-0.21;69.30;98721.40;228741;1193;139756;-66
2021/12/04 06:32:49;;;;;;;13.60;11.60;;;;;;;-0.21;69.15;98716.03;229610;1193;139799;-66
2021/12/04 06:37:52;;;;;;;8.70;6.90;;;;;;;-0.23;69.14;98712.56;229585;1193;139720;-65
2021/12/04 06:42:57;;;;;;;9.60;6.80;;;;;;;-0.25;69.17;98712.98;228036;1193;139828;-65
2021/12/04 06:48:04;;;;;;;11.40;7.00;;;;;;;-0.26;69.24;98709.42;229112;1193;141533;-65
2021/12/04 06:53:29;;;;;;;12.50;8.10;;;;;;;-0.25;69.26;98708.14;227667;1193;160314;-65
2021/12/04 06:58:35;;;;;;;11.10;8.10;;;;;;;-0.19;69.03;98710.30;227721;1193;142729;-65
2021/12/04 07:03:40;;;;;;;13.70;7.20;;;;;;;-0.12;69.22;98708.77;227774;1195;140755;-68
2021/12/04 07:08:43;;;;;;;8.20;6.20;;;;;;;-0.06;69.65;98706.61;228930;1193;139462;-66
2021/12/04 07:13:46;;;;;;;9.50;7.70;;;;;;;-0.04;69.54;98703.52;228835;1193;139522;-67
2021/12/04 07:18:48;;;;;;;10.90;6.50;;;;;;;-0.01;69.51;98696.37;229522;1193;141345;-67
2021/12/04 07:23:52;;;;;;;9.10;6.40;;;;;;;-0.01;69.35;98696.81;228252;1193;140103;-66
2021/12/04 07:28:54;;;;;;;11.10;6.80;;;;;;;0.04;69.51;98695.16;229574;1193;139247;-65
2021/12/04 07:33:57;;;;;;;9.20;6.70;;;;;;;0.09;69.47;98693.95;227979;1183;144921;-64
2021/12/04 07:39:01;;;;;;;12.40;6.70;;;;;;;0.21;69.03;98691.48;228322;1193;139831;-64
2021/12/04 07:44:29;;;;;;;11.20;8.10;;;;;;;0.28;69.08;98689.35;228994;1193;140455;-65
2021/12/04 07:49:30;;;;;;;16.20;8.50;;;;;;;0.34;69.30;98686.98;230144;1193;139552;-67
2021/12/04 07:54:35;;;;;;;12.70;10.00;;;;;;;0.39;69.36;98687.20;230193;1193;139307;-66
2021/12/04 07:59:42;;;;;;;11.00;7.50;;;;;;;0.43;69.26;98687.23;228805;1193;140476;-68
2021/12/04 08:04:45;;;;;;;4.90;3.10;;;;;;;0.49;69.20;98682.14;229186;1193;140273;-67
2021/12/04 08:09:48;;;;;;;10.00;7.30;;;;;;;0.54;69.04;98685.84;228263;1193;140500;-65
2021/12/04 08:14:53;;;;;;;10.40;7.60;;;;;;;0.62;68.99;98689.69;229388;1193;142839;-66
2021/12/04 08:19:56;;;;;;;11.70;7.40;;;;;;;0.67;69.04;98689.02;229275;1193;140233;-63
2021/12/04 08:25:09;;;;;;;12.60;8.60;;;;;;;0.71;68.75;98692.90;228725;1193;140717;-64
2021/12/04 08:30:16;;;;;;;9.00;6.80;;;;;;;0.77;68.92;98689.29;228352;1193;141712;-65
2021/12/04 08:35:24;;;;;;;12.40;7.60;;;;;;;0.84;68.44;98690.05;229156;1193;139198;-66
2021/12/04 08:40:32;;;;;;;10.70;6.90;;;;;;;0.92;68.98;98691.07;229038;1193;138649;-65
2021/12/04 08:45:36;;;;;;;12.00;7.80;;;;;;;1.06;68.54;98692.79;228361;1193;141230;-64
2021/12/04 08:50:41;;;;;;;10.60;8.30;;;;;;;1.16;68.23;98691.92;228159;1193;140115;-65
2021/12/04 08:55:46;;;;;;;10.50;6.80;;;;;;;1.27;68.35;98694.92;229011;1193;140350;-66
2021/12/04 09:00:56;;;;;;;11.60;6.80;;;;;;;1.37;68.41;98693.73;227754;1193;139071;-66
2021/12/04 09:06:02;;;;;;;9.00;7.00;;;;;;;1.44;68.27;98689.66;228076;1193;140486;-66
2021/12/04 09:11:20;;;;;;;11.80;7.70;;;;;;;1.49;67.91;98692.70;228843;1193;139342;-66
2021/12/04 09:16:25;;;;;;;12.50;7.40;;;;;;;1.53;67.95;98694.99;228510;1193;139183;-68
2021/12/04 09:21:50;;;;;;;7.90;5.20;;;;;;;1.55;67.62;98695.91;228256;1193;150059;-65
2021/12/04 09:27:07;;;;;;;15.60;8.50;;;;;;;1.65;67.42;98695.30;229049;1193;151248;-66
2021/12/04 10:05:11;;;;;;;180.00;62.40;;;;;;;1.83;66.52;98665.43;230166;1193;142748;-67
2021/12/04 10:32:25;;;;;;;10.10;7.40;;;;;;;2.06;66.64;98649.05;227764;1194;139584;-66
2021/12/04 10:37:28;;;;;;;11.40;7.50;;;;;;;2.11;66.57;98644.79;228221;1195;139031;-70
2021/12/04 10:42:51;;;;;;;8.40;6.30;;;;;;;2.12;66.34;98640.98;228990;1194;139283;-68
2021/12/04 10:47:58;;;;;;;10.60;6.40;;;;;;;2.12;66.24;98636.90;227626;1194;138512;-64
2021/12/04 10:53:05;;;;;;;9.30;7.10;;;;;;;2.11;66.44;98636.33;228430;1194;139499;-69
2021/12/04 11:19:31;;;;;;;12.00;6.80;;;;;;;2.29;65.96;98601.55;229099;1193;140135;-67
2021/12/04 11:24:57;;;;;;;10.30;6.70;;;;;;;2.34;66.18;98601.77;228686;1194;150459;-67
2021/12/04 11:51:15;;;;;;;17.40;6.70;;;;;;;2.31;66.00;98606.85;230495;1194;140378;-67
2021/12/04 11:56:23;;;;;;;13.70;7.30;;;;;;;2.29;65.97;98607.46;229383;1194;141116;-69
2021/12/04 12:01:33;;;;;;;16.70;8.80;;;;;;;2.33;65.74;98603.84;230131;1194;140428;-68
2021/12/04 12:06:46;;;;;;;14.80;7.90;;;;;;;2.36;66.05;98592.42;229542;1193;139018;-68
2021/12/04 12:12:07;;;;;;;13.40;8.70;;;;;;;2.39;65.90;98590.19;228727;1195;141607;-67
2021/12/04 12:17:10;;;;;;;12.10;6.40;;;;;;;2.37;65.95;98595.98;228395;1193;139717;-67
2021/12/04 12:22:37;;;;;;;10.70;6.50;;;;;;;2.32;65.96;98613.35;227816;1193;139145;-67
2021/12/04 12:27:53;;;;;;;10.40;7.20;;;;;;;2.22;66.04;98609.05;228795;1195;140688;-67
2021/12/04 12:38:39;;;;;;;12.30;8.20;;;;;;;2.09;66.90;98606.70;229045;1194;139938;-67
2021/12/04 12:43:47;;;;;;;14.30;8.30;;;;;;;2.04;68.02;98607.08;227810;1195;139643;-66
2021/12/04 12:48:55;;;;;;;12.00;5.70;;;;;;;2.00;68.34;98607.85;228346;1194;139685;-67
2021/12/04 12:54:02;;;;;;;12.60;6.90;;;;;;;1.95;68.81;98607.10;228246;1195;138767;-67
2021/12/04 12:59:35;;;;;;;11.80;5.70;;;;;;;1.92;69.31;98608.44;228441;1193;139573;-67
2021/12/04 13:15:38;;;;;;;5.20;3.40;;;;;;;1.93;70.26;98594.32;229267;1193;139371;-67
2021/12/04 13:20:43;;;;;;;4.40;3.80;;;;;;;1.92;70.72;98593.07;229023;1193;139888;-67
2021/12/04 13:25:53;;;;;;;9.00;5.20;;;;;;;1.90;71.02;98590.20;229148;1193;139651;-67
2021/12/04 13:31:01;;;;;;;8.20;5.00;;;;;;;1.89;71.26;98593.04;229724;1193;139926;-68
2021/12/04 13:36:12;;;;;;;10.60;5.70;;;;;;;1.82;71.16;98592.62;228808;1193;139639;-67
2021/12/04 13:41:16;;;;;;;12.30;7.60;;;;;;;1.81;71.46;98588.90;229032;1193;139677;-68
2021/12/04 13:46:20;;;;;;;13.80;8.20;;;;;;;1.84;71.58;98583.75;229558;1194;139334;-67
2021/12/04 13:51:22;;;;;;;15.60;9.60;;;;;;;1.82;71.79;98586.11;229949;1194;139229;-68
2021/12/04 13:56:25;;;;;;;13.00;8.50;;;;;;;1.75;71.87;98590.10;230224;1193;138689;-69
2021/12/04 14:01:30;;;;;;;14.80;8.30;;;;;;;1.71;71.92;98590.83;230364;1194;138555;-70
2021/12/04 14:06:42;;;;;;;22.20;11.20;;;;;;;1.65;71.86;98596.50;230294;1194;141477;-71
2021/12/04 14:11:45;;;;;;;20.80;11.00;;;;;;;1.64;71.96;98604.83;230152;1194;139377;-69
2021/12/04 14:16:51;;;;;;;17.00;10.40;;;;;;;1.59;72.19;98601.35;229483;1193;139919;-68
2021/12/04 14:22:01;;;;;;;20.00;10.50;;;;;;;1.54;72.72;98598.00;229276;1193;138882;-67
2021/12/04 14:27:05;;;;;;;14.80;10.00;;;;;;;1.50;72.93;98592.20;229848;1193;138715;-68
2021/12/04 14:32:10;;;;;;;16.90;10.30;;;;;;;1.43;72.99;98586.55;227927;1193;139694;-67
2021/12/04 14:37:17;;;;;;;15.10;9.80;;;;;;;1.43;73.02;98584.13;229309;1193;150639;-67
2021/12/04 14:42:27;;;;;;;16.90;12.10;;;;;;;1.38;72.99;98579.65;229169;1193;142320;-66
2021/12/04 14:47:35;;;;;;;17.10;10.40;;;;;;;1.27;73.04;98581.31;227766;1193;139840;-66
2021/12/04 14:52:42;;;;;;;17.00;11.70;;;;;;;1.17;73.58;98584.08;228545;1193;233801;-66
2021/12/04 14:57:46;;;;;;;18.80;10.60;;;;;;;1.15;73.66;98589.23;228110;1193;139810;-66
2021/12/04 15:03:07;;;;;;;15.00;10.30;;;;;;;1.17;73.85;98595.18;227767;1195;141036;-66
2021/12/04 15:08:17;;;;;;;20.60;12.00;;;;;;;1.15;74.02;98594.81;228242;1193;140579;-66
2021/12/04 15:13:30;;;;;;;22.60;13.70;;;;;;;1.02;74.08;98592.27;228207;1193;139541;-67
2021/12/04 15:18:39;;;;;;;20.50;13.70;;;;;;;0.92;74.31;98598.55;228323;1193;139008;-66
2021/12/04 15:24:05;;;;;;;28.20;14.30;;;;;;;0.85;74.52;98609.94;228774;1193;139808;-67
2021/12/04 15:29:18;;;;;;;25.40;14.20;;;;;;;0.82;75.03;98608.79;228063;1193;139490;-66
2021/12/04 15:35:01;;;;;;;21.60;14.60;;;;;;;0.83;74.56;98604.31;229651;1193;139293;-68
2021/12/04 15:40:10;;;;;;;30.30;16.90;;;;;;;0.83;74.96;98588.21;228211;1193;140711;-67
2021/12/04 15:45:42;;;;;;;29.40;16.10;;;;;;;0.79;75.00;98584.34;228224;1193;139816;-66
2021/12/04 15:51:14;;;;;;;27.70;17.50;;;;;;;0.75;75.12;98590.98;228460;1193;140087;-67
2021/12/04 15:56:37;;;;;;;29.70;16.70;;;;;;;0.71;75.29;98605.78;230321;1193;139916;-69
2021/12/04 16:01:41;;;;;;;28.00;14.30;;;;;;;0.72;75.70;98614.50;229822;1193;139574;-67
2021/12/04 16:06:44;;;;;;;28.70;16.00;;;;;;;0.76;75.46;98608.78;230294;1193;140227;-67
2021/12/04 16:11:46;;;;;;;28.20;17.70;;;;;;;0.78;75.25;98606.69;229019;1193;140416;-67
2021/12/04 16:16:49;;;;;;;46.00;25.90;;;;;;;0.74;75.64;98604.77;229145;1193;140212;-66
2021/12/04 16:21:58;;;;;;;54.00;26.80;;;;;;;0.66;75.76;98610.09;227909;1186;140240;-66
2021/12/04 16:27:16;;;;;;;63.80;33.60;;;;;;;0.62;75.83;98609.84;228645;1193;140525;-67
2021/12/04 16:32:35;;;;;;;43.60;21.50;;;;;;;0.58;76.07;98604.76;227900;1195;140234;-66
2021/12/04 16:37:49;;;;;;;97.70;47.50;;;;;;;0.55;75.78;98598.14;229322;1193;140536;-67
2021/12/04 16:43:01;;;;;;;113.40;50.80;;;;;;;0.57;76.04;98591.24;228858;1193;140272;-67
2021/12/04 16:48:08;;;;;;;114.20;56.40;;;;;;;0.64;76.65;98586.06;227495;1193;140206;-66
2021/12/04 16:58:34;;;;;;;53.80;29.10;;;;;;;0.48;75.95;98577.42;227910;1193;142897;-67
2021/12/04 17:03:36;;;;;;;71.20;40.30;;;;;;;0.34;76.07;98574.42;228975;1193;140203;-67
2021/12/04 17:08:39;;;;;;;66.30;31.30;;;;;;;0.27;76.42;98570.27;228771;1193;140034;-66
2021/12/04 17:13:42;;;;;;;56.30;29.30;;;;;;;0.25;76.14;98571.27;227848;1193;142190;-67
2021/12/04 17:18:50;;;;;;;55.20;33.50;;;;;;;0.20;76.15;98572.54;227618;1193;140930;-66
2021/12/04 17:23:52;;;;;;;;;;;;;;;0.10;76.10;98583.82;229631;1193;139981;-67
2021/12/04 17:28:55;;;;;;;61.90;27.50;;;;;;;-0.05;76.00;98600.10;229471;1193;126850;-67
2021/12/04 17:33:59;;;;;;;41.40;23.20;;;;;;;-0.16;76.42;98599.55;229391;1193;142312;-67
2021/12/04 17:39:07;;;;;;;34.90;21.00;;;;;;;-0.29;76.04;98598.52;229409;1193;140925;-68
2021/12/04 17:44:16;;;;;;;65.60;35.50;;;;;;;-0.29;76.12;98595.33;227950;1193;139742;-66
2021/12/04 17:49:28;;;;;;;62.70;32.10;;;;;;;-0.25;76.44;98597.10;228642;1193;139580;-67
2021/12/04 17:54:31;;;;;;;61.40;32.60;;;;;;;-0.30;76.61;98594.59;230156;1193;140672;-69
2021/12/04 17:59:34;;;;;;;54.80;32.80;;;;;;;-0.34;76.79;98597.48;230545;1193;140156;-69
2021/12/04 18:04:41;;;;;;;44.10;25.30;;;;;;;-0.36;76.69;98594.73;230295;1193;139767;-69
2021/12/04 18:09:46;;;;;;;44.50;24.50;;;;;;;-0.31;76.54;98598.95;230512;1193;141215;-69
2021/12/04 18:14:51;;;;;;;45.50;28.70;;;;;;;-0.27;76.87;98602.50;230367;1193;140714;-69
2021/12/04 18:19:54;;;;;;;55.40;29.30;;;;;;;-0.21;76.83;98596.33;229381;1194;139719;-68
2021/12/04 18:24:57;;;;;;;57.70;30.50;;;;;;;-0.21;76.88;98593.80;228052;1194;140134;-67
2021/12/04 18:30:03;;;;;;;43.90;25.60;;;;;;;-0.22;76.78;98589.77;227949;1194;140210;-67
2021/12/04 18:35:08;;;;;;;51.60;25.60;;;;;;;-0.23;76.88;98577.98;228036;1193;141015;-66
2021/12/04 18:40:15;;;;;;;51.30;26.10;;;;;;;-0.19;76.81;98573.10;227927;1193;140110;-66
2021/12/04 18:45:21;;;;;;;63.20;35.10;;;;;;;-0.10;77.18;98565.98;229060;1194;141040;-66
2021/12/04 18:50:24;;;;;;;49.20;28.30;;;;;;;-0.05;77.28;98558.39;229421;1193;140257;-67
2021/12/04 18:55:28;;;;;;;54.30;27.00;;;;;;;-0.02;77.35;98554.09;228001;1193;139986;-67
2021/12/04 19:00:40;;;;;;;52.10;28.10;;;;;;;0.01;77.22;98556.13;227927;1193;139984;-67
2021/12/04 19:05:46;;;;;;;54.00;29.60;;;;;;;0.07;77.24;98547.53;228680;1193;140000;-68
2021/12/04 19:11:08;;;;;;;49.10;25.70;;;;;;;0.12;77.07;98540.95;228695;1193;139973;-66
2021/12/04 19:16:11;;;;;;;44.70;24.70;;;;;;;0.14;77.41;98540.90;228500;1194;139886;-67
2021/12/04 19:21:14;;;;;;;49.10;28.60;;;;;;;0.13;77.05;98547.71;228413;1194;139141;-67
2021/12/04 19:26:18;;;;;;;37.70;23.00;;;;;;;0.07;76.77;98551.11;228478;1194;138848;-67
2021/12/04 19:31:24;;;;;;;46.40;23.40;;;;;;;-0.03;76.86;98551.30;228575;1194;140361;-67
2021/12/04 19:52:33;;;;;;;44.80;23.40;;;;;;;-0.16;76.31;98545.31;229442;1193;139738;-67
2021/12/04 19:57:42;;;;;;;35.00;20.80;;;;;;;-0.24;76.15;98540.67;227910;1193;140504;-67
2021/12/04 20:02:59;;;;;;;39.80;22.00;;;;;;;-0.35;75.96;98537.59;230531;1193;141008;-67
2021/12/04 20:08:31;;;;;;;44.80;22.40;;;;;;;-0.43;76.22;98542.41;230234;1193;138928;-69
2021/12/04 20:13:43;;;;;;;44.40;22.70;;;;;;;-0.48;76.18;98540.36;230247;1194;139200;-69
2021/12/04 20:18:49;;;;;;;44.90;23.20;;;;;;;-0.43;75.88;98546.39;228916;1193;141023;-67
2021/12/04 20:23:54;;;;;;;43.90;24.00;;;;;;;-0.44;75.82;98546.88;230402;1193;140027;-68
2021/12/04 21:11:40;;;;;;;52.00;27.00;;;;;;;-0.78;75.41;98546.17;229097;1193;139232;-68
2021/12/04 21:49:15;;;;;;;48.60;22.30;;;;;;;-0.94;75.59;98528.82;229450;1193;125949;-70
2021/12/04 21:49:30;;;;;;;47.10;24.10;;;;;;;-0.90;75.67;98514.29;229505;1193;141572;-69
2021/12/04 21:54:38;;;;;;;52.70;26.20;;;;;;;-0.89;75.47;98499.77;229077;1193;140346;-68
2021/12/04 22:10:33;;;;;;;47.50;22.10;;;;;;;-0.87;75.55;98487.42;229380;1193;141455;-67
2021/12/04 22:20:51;;;;;;;41.40;22.80;;;;;;;-0.89;75.09;98487.52;230389;1193;141955;-74
2021/12/04 22:58:15;;;;;;;35.40;20.40;;;;;;;-0.97;74.81;98473.61;228836;1193;139027;-69
2021/12/04 23:13:56;;;;;;;44.90;21.90;;;;;;;-0.92;74.83;98467.48;228246;1194;139389;-65
2021/12/04 23:35:59;;;;;;;40.10;21.30;;;;;;;-1.03;74.54;98480.90;229472;1193;139543;-66
2021/12/04 23:41:03;;;;;;;37.50;22.10;;;;;;;-1.07;74.44;98471.25;228870;1193;140093;-67
